Karlstad, Minnesota
Current Conditions -  °F | °C
As of 6:13 PM on Friday 21 Nov 2014 (Local Time) from KHCO Reporting Station
Clear Clear  
Wind Chill: 18°   Ceiling: Unl
Heat Index: 30°   Visibility: 10mi
Dew Point: 25°   Wind: 20mph
Humidity: 80%   Direction: 180°S
Pressure: 29.56"   Gusts: 26mph
Location:  48.58°N, 96.52°W
Report Text: KHCO 220013Z AUTO 18017G23KT 10SM CLR M01/M04 A2956 RMK AO2
Loading
Personal Weather Stations






























Interactive Weather Map New forecast layout! Learn more

10-Day Weather Forecast

Advertisements
Track Severe Weather on mobile